sensor_id;sensor_type;location;lat;lon;timestamp;pressure;altitude;pressure_sealevel;temperature;humidity
19005;BME280;9635;52.078;8.648;2024-03-23T00:55:36;99743.41;;;5.90;100.00
19005;BME280;9635;52.078;8.648;2024-03-23T01:00:36;99740.81;;;5.89;100.00
19005;BME280;9635;52.078;8.648;2024-03-23T01:05:37;99727.41;;;5.90;100.00
19005;BME280;9635;52.078;8.648;2024-03-23T01:10:38;99719.94;;;5.95;100.00
19005;BME280;9635;52.078;8.648;2024-03-23T01:15:39;99713.84;;;5.93;100.00
19005;BME280;9635;52.078;8.648;2024-03-23T01:20:39;99708.28;;;5.97;100.00
19005;BME280;9635;52.078;8.648;2024-03-23T01:25:40;99707.22;;;5.99;100.00
19005;BME280;9635;52.078;8.648;2024-03-23T01:30:41;99704.72;;;5.85;100.00
19005;BME280;9635;52.078;8.648;2024-03-23T01:35:42;99682.34;;;5.75;100.00
19005;BME280;9635;52.078;8.648;2024-03-23T01:40:43;99686.06;;;5.85;100.00
19005;BME280;9635;52.078;8.648;2024-03-23T01:45:44;99681.66;;;5.84;100.00
19005;BME280;9635;52.078;8.648;2024-03-23T01:50:45;99679.72;;;5.99;100.00
19005;BME280;9635;52.078;8.648;2024-03-23T01:55:47;99659.56;;;5.94;100.00
19005;BME280;9635;52.078;8.648;2024-03-23T02:00:47;99667.28;;;5.37;100.00
19005;BME280;9635;52.078;8.648;2024-03-23T02:05:48;99665.34;;;5.88;100.00
19005;BME280;9635;52.078;8.648;2024-03-23T02:10:50;99649.44;;;5.87;100.00
19005;BME280;9635;52.078;8.648;2024-03-23T02:15:51;99638.38;;;5.93;100.00
19005;BME280;9635;52.078;8.648;2024-03-23T02:20:51;99645.06;;;5.62;100.00
19005;BME280;9635;52.078;8.648;2024-03-23T02:25:52;99640.66;;;5.73;100.00
19005;BME280;9635;52.078;8.648;2024-03-23T02:30:56;99634.91;;;5.67;100.00
19005;BME280;9635;52.078;8.648;2024-03-23T02:35:57;99636.47;;;5.82;100.00
19005;BME280;9635;52.078;8.648;2024-03-23T02:41:03;99626.19;;;5.65;100.00
19005;BME280;9635;52.078;8.648;2024-03-23T02:46:03;99628.44;;;5.58;100.00
19005;BME280;9635;52.078;8.648;2024-03-23T02:51:04;99621.59;;;5.67;100.00
19005;BME280;9635;52.078;8.648;2024-03-23T02:56:05;99615.44;;;5.66;100.00
19005;BME280;9635;52.078;8.648;2024-03-23T03:01:07;99606.25;;;5.70;100.00
19005;BME280;9635;52.078;8.648;2024-03-23T03:06:07;99603.69;;;5.69;100.00
19005;BME280;9635;52.078;8.648;2024-03-23T03:11:08;99596.16;;;5.63;100.00
19005;BME280;9635;52.078;8.648;2024-03-23T03:16:12;99596.22;;;5.37;100.00
19005;BME280;9635;52.078;8.648;2024-03-23T03:21:13;99598.91;;;5.24;100.00
19005;BME280;9635;52.078;8.648;2024-03-23T03:26:14;99600.69;;;5.37;100.00
19005;BME280;9635;52.078;8.648;2024-03-23T03:31:15;99603.47;;;5.35;100.00
19005;BME280;9635;52.078;8.648;2024-03-23T03:36:17;99591.63;;;5.39;100.00
19005;BME280;9635;52.078;8.648;2024-03-23T03:41:18;99585.59;;;5.24;100.00
19005;BME280;9635;52.078;8.648;2024-03-23T03:46:19;99576.88;;;5.10;100.00
19005;BME280;9635;52.078;8.648;2024-03-23T03:51:19;99570.16;;;5.17;100.00
19005;BME280;9635;52.078;8.648;2024-03-23T03:56:21;99576.25;;;5.06;100.00
19005;BME280;9635;52.078;8.648;2024-03-23T04:01:22;99574.03;;;5.00;100.00
19005;BME280;9635;52.078;8.648;2024-03-23T04:06:23;99575.38;;;5.18;100.00
19005;BME280;9635;52.078;8.648;2024-03-23T04:11:24;99573.28;;;4.59;100.00
19005;BME280;9635;52.078;8.648;2024-03-23T04:16:27;99577.00;;;4.57;100.00
19005;BME280;9635;52.078;8.648;2024-03-23T04:21:27;99578.06;;;4.54;100.00
19005;BME280;9635;52.078;8.648;2024-03-23T04:26:28;99580.19;;;4.36;100.00
19005;BME280;9635;52.078;8.648;2024-03-23T04:31:29;99574.06;;;4.22;100.00
19005;BME280;9635;52.078;8.648;2024-03-23T04:36:30;99567.97;;;4.72;100.00
19005;BME280;9635;52.078;8.648;2024-03-23T04:41:30;99565.72;;;4.53;100.00
19005;BME280;9635;52.078;8.648;2024-03-23T04:46:31;99565.16;;;4.35;100.00
19005;BME280;9635;52.078;8.648;2024-03-23T04:51:38;99576.09;;;4.18;100.00
19005;BME280;9635;52.078;8.648;2024-03-23T04:56:39;99574.16;;;4.07;100.00
19005;BME280;9635;52.078;8.648;2024-03-23T05:01:40;99553.47;;;4.51;100.00
19005;BME280;9635;52.078;8.648;2024-03-23T05:06:43;99556.16;;;4.64;100.00
19005;BME280;9635;52.078;8.648;2024-03-23T05:11:43;99554.09;;;4.29;100.00
19005;BME280;9635;52.078;8.648;2024-03-23T05:16:45;99538.38;;;4.51;100.00
19005;BME280;9635;52.078;8.648;2024-03-23T05:21:45;99531.25;;;4.77;100.00
19005;BME280;9635;52.078;8.648;2024-03-23T05:26:46;99538.25;;;4.91;100.00
19005;BME280;9635;52.078;8.648;2024-03-23T05:31:49;99538.25;;;4.91;100.00
19005;BME280;9635;52.078;8.648;2024-03-23T05:36:51;99539.94;;;4.79;100.00
19005;BME280;9635;52.078;8.648;2024-03-23T05:41:51;99543.66;;;4.77;100.00
19005;BME280;9635;52.078;8.648;2024-03-23T05:46:52;99541.75;;;4.79;100.00
19005;BME280;9635;52.078;8.648;2024-03-23T05:51:53;99549.88;;;4.65;100.00
19005;BME280;9635;52.078;8.648;2024-03-23T05:56:56;99539.66;;;4.58;100.00
19005;BME280;9635;52.078;8.648;2024-03-23T06:01:57;99543.16;;;4.46;100.00
19005;BME280;9635;52.078;8.648;2024-03-23T06:06:58;99547.50;;;4.60;100.00
19005;BME280;9635;52.078;8.648;2024-03-23T06:11:59;99551.66;;;4.26;100.00
19005;BME280;9635;52.078;8.648;2024-03-23T06:17:00;99546.97;;;5.06;100.00
19005;BME280;9635;52.078;8.648;2024-03-23T06:22:01;99549.34;;;4.59;100.00
19005;BME280;9635;52.078;8.648;2024-03-23T06:27:02;99544.41;;;4.66;100.00
19005;BME280;9635;52.078;8.648;2024-03-23T06:32:02;99547.41;;;4.87;100.00
19005;BME280;9635;52.078;8.648;2024-03-23T06:37:04;99552.94;;;4.97;100.00
19005;BME280;9635;52.078;8.648;2024-03-23T06:42:05;99549.53;;;5.44;100.00
19005;BME280;9635;52.078;8.648;2024-03-23T06:47:06;99541.25;;;5.36;100.00
19005;BME280;9635;52.078;8.648;2024-03-23T06:52:07;99555.81;;;5.06;100.00
19005;BME280;9635;52.078;8.648;2024-03-23T06:57:07;99556.97;;;5.15;100.00
19005;BME280;9635;52.078;8.648;2024-03-23T07:02:08;99543.53;;;5.54;100.00
19005;BME280;9635;52.078;8.648;2024-03-23T07:07:09;99542.84;;;5.39;100.00
19005;BME280;9635;52.078;8.648;2024-03-23T07:12:09;99559.38;;;5.31;100.00
19005;BME280;9635;52.078;8.648;2024-03-23T07:17:10;99557.78;;;5.28;100.00
19005;BME280;9635;52.078;8.648;2024-03-23T07:22:11;99563.81;;;5.67;100.00
19005;BME280;9635;52.078;8.648;2024-03-23T07:27:12;99556.97;;;5.15;100.00
19005;BME280;9635;52.078;8.648;2024-03-23T07:32:13;99559.88;;;5.49;100.00
19005;BME280;9635;52.078;8.648;2024-03-23T07:37:14;99561.53;;;5.63;100.00
19005;BME280;9635;52.078;8.648;2024-03-23T07:42:14;99542.59;;;6.25;100.00
19005;BME280;9635;52.078;8.648;2024-03-23T07:47:15;99564.88;;;6.48;100.00
19005;BME280;9635;52.078;8.648;2024-03-23T07:52:16;99560.09;;;5.70;100.00
19005;BME280;9635;52.078;8.648;2024-03-23T07:57:17;99555.19;;;6.12;100.00
19005;BME280;9635;52.078;8.648;2024-03-23T08:02:18;99559.81;;;6.21;100.00
19005;BME280;9635;52.078;8.648;2024-03-23T08:07:19;99556.72;;;6.38;100.00
19005;BME280;9635;52.078;8.648;2024-03-23T08:12:21;99572.72;;;6.03;99.51
19005;BME280;9635;52.078;8.648;2024-03-23T08:17:22;99557.44;;;6.40;98.63
19005;BME280;9635;52.078;8.648;2024-03-23T08:22:23;99560.72;;;6.44;97.42
19005;BME280;9635;52.078;8.648;2024-03-23T08:27:24;99565.69;;;6.95;97.16
19005;BME280;9635;52.078;8.648;2024-03-23T08:32:24;99564.56;;;6.29;91.37
19005;BME280;9635;52.078;8.648;2024-03-23T08:37:25;99565.72;;;6.60;88.64
19005;BME280;9635;52.078;8.648;2024-03-23T08:42:27;99551.31;;;6.16;91.81
19005;BME280;9635;52.078;8.648;2024-03-23T08:47:28;99546.19;;;6.48;87.93
19005;BME280;9635;52.078;8.648;2024-03-23T08:52:29;99558.72;;;6.81;86.55
19005;BME280;9635;52.078;8.648;2024-03-23T08:57:30;99551.34;;;7.30;80.83
19005;BME280;9635;52.078;8.648;2024-03-23T09:02:30;99551.41;;;7.51;82.22
19005;BME280;9635;52.078;8.648;2024-03-23T09:07:31;99553.16;;;7.07;82.98
19005;BME280;9635;52.078;8.648;2024-03-23T09:12:32;99560.94;;;7.10;80.00
19005;BME280;9635;52.078;8.648;2024-03-23T09:17:33;99549.88;;;7.15;78.98
19005;BME280;9635;52.078;8.648;2024-03-23T09:22:34;99554.44;;;8.43;77.96
19005;BME280;9635;52.078;8.648;2024-03-23T09:27:34;99552.56;;;9.57;71.74
19005;BME280;9635;52.078;8.648;2024-03-23T09:32:35;99540.88;;;9.77;67.10
19005;BME280;9635;52.078;8.648;2024-03-23T09:37:37;99532.03;;;10.06;66.33
19005;BME280;9635;52.078;8.648;2024-03-23T09:42:38;99541.34;;;10.11;64.86
19005;BME280;9635;52.078;8.648;2024-03-23T09:47:39;99540.50;;;8.91;62.92
19005;BME280;9635;52.078;8.648;2024-03-23T09:52:40;99556.72;;;8.90;64.06
19005;BME280;9635;52.078;8.648;2024-03-23T09:57:42;99545.47;;;9.36;63.03
19005;BME280;9635;52.078;8.648;2024-03-23T10:02:43;99543.78;;;7.79;70.67
19005;BME280;9635;52.078;8.648;2024-03-23T10:07:43;99563.78;;;6.62;73.25
19005;BME280;9635;52.078;8.648;2024-03-23T10:12:45;99540.53;;;6.75;76.98
19005;BME280;9635;52.078;8.648;2024-03-23T10:17:55;99525.13;;;7.13;74.16
19005;BME280;9635;52.078;8.648;2024-03-23T10:22:56;99532.25;;;7.35;72.11
19005;BME280;9635;52.078;8.648;2024-03-23T10:28:00;99519.91;;;8.19;65.87
19005;BME280;9635;52.078;8.648;2024-03-23T10:33:11;99520.66;;;8.42;62.55
19005;BME280;9635;52.078;8.648;2024-03-23T10:38:12;99521.06;;;9.39;57.39
19005;BME280;9635;52.078;8.648;2024-03-23T10:43:13;99504.94;;;9.99;54.75
19005;BME280;9635;52.078;8.648;2024-03-23T10:48:14;99521.94;;;9.49;56.74
19005;BME280;9635;52.078;8.648;2024-03-23T10:53:15;99514.22;;;9.06;56.15
19005;BME280;9635;52.078;8.648;2024-03-23T10:58:28;99507.56;;;10.38;53.04
19005;BME280;9635;52.078;8.648;2024-03-23T11:08:33;99494.59;;;9.94;55.74
19005;BME280;9635;52.078;8.648;2024-03-23T11:13:34;99496.97;;;10.27;57.02
19005;BME280;9635;52.078;8.648;2024-03-23T11:18:34;99486.97;;;10.19;54.67
19005;BME280;9635;52.078;8.648;2024-03-23T11:23:35;99504.84;;;11.50;50.84
19005;BME280;9635;52.078;8.648;2024-03-23T11:28:36;99520.09;;;8.06;77.78
19005;BME280;9635;52.078;8.648;2024-03-23T11:33:37;99549.56;;;5.32;99.20
19005;BME280;9635;52.078;8.648;2024-03-23T11:38:38;99545.41;;;4.78;100.00
19005;BME280;9635;52.078;8.648;2024-03-23T11:43:39;99533.91;;;4.26;94.56
19005;BME280;9635;52.078;8.648;2024-03-23T11:48:39;99523.41;;;5.13;91.72
19005;BME280;9635;52.078;8.648;2024-03-23T11:53:40;99522.69;;;6.76;81.87
19005;BME280;9635;52.078;8.648;2024-03-23T11:58:41;99512.19;;;7.84;77.76
19005;BME280;9635;52.078;8.648;2024-03-23T12:03:43;99514.06;;;6.83;81.02
19005;BME280;9635;52.078;8.648;2024-03-23T12:08:44;99505.78;;;8.80;72.81
19005;BME280;9635;52.078;8.648;2024-03-23T12:13:45;99492.34;;;9.01;66.84
19005;BME280;9635;52.078;8.648;2024-03-23T12:18:48;99494.34;;;7.52;72.18
19005;BME280;9635;52.078;8.648;2024-03-23T12:23:49;99480.44;;;8.11;67.50
19005;BME280;9635;52.078;8.648;2024-03-23T12:28:50;99499.09;;;8.23;74.17
19005;BME280;9635;52.078;8.648;2024-03-23T12:33:51;99484.47;;;7.85;69.19
19005;BME280;9635;52.078;8.648;2024-03-23T12:38:52;99478.81;;;9.02;77.44
19005;BME280;9635;52.078;8.648;2024-03-23T12:43:53;99489.97;;;8.67;77.94
19005;BME280;9635;52.078;8.648;2024-03-23T12:48:54;99513.56;;;8.41;76.53
19005;BME280;9635;52.078;8.648;2024-03-23T12:53:54;99514.81;;;7.95;77.19
19005;BME280;9635;52.078;8.648;2024-03-23T12:58:55;99506.00;;;9.67;69.97
19005;BME280;9635;52.078;8.648;2024-03-23T13:03:57;99493.91;;;11.06;54.56
19005;BME280;9635;52.078;8.648;2024-03-23T13:09:02;99493.41;;;10.46;49.80
19005;BME280;9635;52.078;8.648;2024-03-23T13:14:03;99501.13;;;11.05;50.54
19005;BME280;9635;52.078;8.648;2024-03-23T13:19:04;99531.47;;;12.07;47.91
19005;BME280;9635;52.078;8.648;2024-03-23T13:24:05;99562.56;;;9.45;60.12
19005;BME280;9635;52.078;8.648;2024-03-23T13:29:06;99561.03;;;7.31;71.21
19005;BME280;9635;52.078;8.648;2024-03-23T13:34:07;99559.09;;;6.30;75.55
19005;BME280;9635;52.078;8.648;2024-03-23T13:39:08;99538.38;;;6.23;78.04
19005;BME280;9635;52.078;8.648;2024-03-23T13:44:12;99557.31;;;5.11;84.61
19005;BME280;9635;52.078;8.648;2024-03-23T13:49:26;99566.00;;;5.25;90.60
19005;BME280;9635;52.078;8.648;2024-03-23T13:54:27;99561.22;;;4.79;95.31
19005;BME280;9635;52.078;8.648;2024-03-23T13:59:29;99552.72;;;4.87;94.50
19005;BME280;9635;52.078;8.648;2024-03-23T14:04:30;99541.25;;;6.20;97.30
19005;BME280;9635;52.078;8.648;2024-03-23T14:09:30;99524.41;;;10.01;69.69
19005;BME280;9635;52.078;8.648;2024-03-23T14:14:33;99526.28;;;11.04;70.23
19005;BME280;9635;52.078;8.648;2024-03-23T14:19:33;99523.50;;;8.29;67.35
19005;BME280;9635;52.078;8.648;2024-03-23T14:24:34;99510.78;;;10.51;64.43
19005;BME280;9635;52.078;8.648;2024-03-23T14:29:35;99524.19;;;9.44;62.23
19005;BME280;9635;52.078;8.648;2024-03-23T14:34:36;99559.00;;;6.32;79.38
19005;BME280;9635;52.078;8.648;2024-03-23T14:39:37;99559.97;;;4.47;100.00
19005;BME280;9635;52.078;8.648;2024-03-23T14:44:42;99555.03;;;3.75;92.38
19005;BME280;9635;52.078;8.648;2024-03-23T14:49:43;99536.34;;;4.29;85.18
19005;BME280;9635;52.078;8.648;2024-03-23T14:54:47;99534.75;;;5.88;81.91
19005;BME280;9635;52.078;8.648;2024-03-23T14:59:48;99540.91;;;5.89;76.78
19005;BME280;9635;52.078;8.648;2024-03-23T15:04:49;99557.47;;;5.20;79.34
19005;BME280;9635;52.078;8.648;2024-03-23T15:09:49;99560.91;;;4.97;82.15
19005;BME280;9635;52.078;8.648;2024-03-23T15:14:50;99558.03;;;4.87;85.92
19005;BME280;9635;52.078;8.648;2024-03-23T15:19:51;99553.78;;;4.97;88.02
19005;BME280;9635;52.078;8.648;2024-03-23T15:24:53;99575.50;;;4.40;88.50
19005;BME280;9635;52.078;8.648;2024-03-23T15:29:56;99572.34;;;3.95;100.00
19005;BME280;9635;52.078;8.648;2024-03-23T15:34:57;99534.34;;;5.34;100.00
19005;BME280;9635;52.078;8.648;2024-03-23T15:39:57;99519.44;;;5.79;93.69
19005;BME280;9635;52.078;8.648;2024-03-23T15:44:58;99510.53;;;6.72;92.76
19005;BME280;9635;52.078;8.648;2024-03-23T15:50:00;99511.22;;;7.85;83.03
19005;BME280;9635;52.078;8.648;2024-03-23T15:55:01;99488.44;;;7.26;74.79
19005;BME280;9635;52.078;8.648;2024-03-23T16:00:04;99486.19;;;8.07;73.93
19005;BME280;9635;52.078;8.648;2024-03-23T16:05:12;99478.94;;;7.98;70.60
19005;BME280;9635;52.078;8.648;2024-03-23T16:10:14;99456.78;;;7.54;72.21
19005;BME280;9635;52.078;8.648;2024-03-23T16:15:15;99451.91;;;7.59;74.43
19005;BME280;9635;52.078;8.648;2024-03-23T16:20:16;99453.56;;;6.50;75.87
19005;BME280;9635;52.078;8.648;2024-03-23T16:25:17;99443.94;;;6.93;75.47
19005;BME280;9635;52.078;8.648;2024-03-23T16:30:18;99441.16;;;6.72;74.68
19005;BME280;9635;52.078;8.648;2024-03-23T16:35:19;99434.00;;;6.50;75.88
19005;BME280;9635;52.078;8.648;2024-03-23T16:40:19;99435.94;;;6.70;76.59
19005;BME280;9635;52.078;8.648;2024-03-23T16:45:20;99443.91;;;6.03;77.62
19005;BME280;9635;52.078;8.648;2024-03-23T16:50:21;99484.28;;;5.02;79.69
19005;BME280;9635;52.078;8.648;2024-03-23T16:55:22;99478.03;;;4.52;86.71
19005;BME280;9635;52.078;8.648;2024-03-23T17:00:23;99485.66;;;5.08;83.56
19005;BME280;9635;52.078;8.648;2024-03-23T17:05:24;99500.00;;;5.66;80.66
19005;BME280;9635;52.078;8.648;2024-03-23T17:10:25;99497.94;;;5.93;80.49
19005;BME280;9635;52.078;8.648;2024-03-23T17:15:26;99507.91;;;5.43;80.84
19005;BME280;9635;52.078;8.648;2024-03-23T17:20:26;99507.25;;;4.90;83.98
19005;BME280;9635;52.078;8.648;2024-03-23T17:25:27;99497.50;;;5.27;86.82
19005;BME280;9635;52.078;8.648;2024-03-23T17:30:28;99498.31;;;5.04;83.54
19005;BME280;9635;52.078;8.648;2024-03-23T17:35:28;99509.31;;;5.23;86.08
19005;BME280;9635;52.078;8.648;2024-03-23T17:40:31;99513.91;;;4.72;90.49
19005;BME280;9635;52.078;8.648;2024-03-23T17:45:31;99478.63;;;3.66;100.00
19005;BME280;9635;52.078;8.648;2024-03-23T17:50:32;99482.59;;;3.46;100.00
19005;BME280;9635;52.078;8.648;2024-03-23T17:55:33;99486.75;;;3.50;100.00
19005;BME280;9635;52.078;8.648;2024-03-23T18:00:34;99479.84;;;3.47;100.00
19005;BME280;9635;52.078;8.648;2024-03-23T18:05:35;99485.13;;;3.75;98.94
19005;BME280;9635;52.078;8.648;2024-03-23T18:10:35;99485.41;;;3.57;100.00
19005;BME280;9635;52.078;8.648;2024-03-23T18:15:36;99495.25;;;3.82;99.53
19005;BME280;9635;52.078;8.648;2024-03-23T18:20:37;99498.94;;;3.80;97.37
19005;BME280;9635;52.078;8.648;2024-03-23T18:25:38;99498.78;;;4.08;96.43
19005;BME280;9635;52.078;8.648;2024-03-23T18:30:39;99497.31;;;4.17;97.06
19005;BME280;9635;52.078;8.648;2024-03-23T18:35:40;99498.16;;;4.17;97.26
19005;BME280;9635;52.078;8.648;2024-03-23T18:40:48;99499.22;;;4.15;93.99
19005;BME280;9635;52.078;8.648;2024-03-23T18:45:50;99503.00;;;3.85;90.66
19005;BME280;9635;52.078;8.648;2024-03-23T18:50:52;99499.16;;;3.77;87.34
19005;BME280;9635;52.078;8.648;2024-03-23T18:55:54;99486.38;;;3.69;86.06
19005;BME280;9635;52.078;8.648;2024-03-23T19:00:57;99484.50;;;3.44;85.99
19005;BME280;9635;52.078;8.648;2024-03-23T19:05:58;99491.25;;;3.62;85.28
19005;BME280;9635;52.078;8.648;2024-03-23T19:11:01;99483.88;;;3.53;83.79
19005;BME280;9635;52.078;8.648;2024-03-23T19:16:02;99494.50;;;3.53;84.37
19005;BME280;9635;52.078;8.648;2024-03-23T19:21:05;99506.50;;;3.73;83.49
19005;BME280;9635;52.078;8.648;2024-03-23T19:26:06;99494.00;;;3.61;83.45
19005;BME280;9635;52.078;8.648;2024-03-23T19:31:08;99497.31;;;3.64;84.24
19005;BME280;9635;52.078;8.648;2024-03-23T19:36:08;99500.28;;;3.33;85.46
19005;BME280;9635;52.078;8.648;2024-03-23T19:41:09;99518.25;;;3.00;86.13
19005;BME280;9635;52.078;8.648;2024-03-23T19:46:10;99503.06;;;3.17;86.33
19005;BME280;9635;52.078;8.648;2024-03-23T19:51:11;99496.72;;;3.19;85.90
19005;BME280;9635;52.078;8.648;2024-03-23T19:56:12;99504.06;;;3.28;87.41
19005;BME280;9635;52.078;8.648;2024-03-23T20:01:14;99500.66;;;3.54;85.29
19005;BME280;9635;52.078;8.648;2024-03-23T20:06:18;99489.53;;;3.48;84.76
19005;BME280;9635;52.078;8.648;2024-03-23T20:11:25;99485.66;;;3.80;83.41
19005;BME280;9635;52.078;8.648;2024-03-23T20:16:26;99488.50;;;3.64;84.88
19005;BME280;9635;52.078;8.648;2024-03-23T20:21:27;99477.94;;;3.49;85.73
19005;BME280;9635;52.078;8.648;2024-03-23T20:26:28;99481.09;;;3.42;87.46
19005;BME280;9635;52.078;8.648;2024-03-23T20:31:29;99480.69;;;3.21;89.68
19005;BME280;9635;52.078;8.648;2024-03-23T20:36:29;99476.28;;;2.93;91.29
19005;BME280;9635;52.078;8.648;2024-03-23T20:41:30;99474.47;;;3.08;90.97
19005;BME280;9635;52.078;8.648;2024-03-23T20:46:31;99483.09;;;3.11;88.93
19005;BME280;9635;52.078;8.648;2024-03-23T20:51:32;99479.75;;;2.80;92.21
19005;BME280;9635;52.078;8.648;2024-03-23T20:56:34;99463.75;;;2.39;95.35
19005;BME280;9635;52.078;8.648;2024-03-23T21:01:34;99479.16;;;2.90;92.67
19005;BME280;9635;52.078;8.648;2024-03-23T21:06:36;99459.06;;;3.00;91.82
19005;BME280;9635;52.078;8.648;2024-03-23T21:11:37;99465.03;;;2.89;92.14
19005;BME280;9635;52.078;8.648;2024-03-23T21:16:37;99474.84;;;2.74;93.01
19005;BME280;9635;52.078;8.648;2024-03-23T21:21:38;99465.94;;;2.61;93.23
19005;BME280;9635;52.078;8.648;2024-03-23T21:26:39;99460.75;;;3.28;89.49
19005;BME280;9635;52.078;8.648;2024-03-23T21:31:40;99465.97;;;3.30;89.17
19005;BME280;9635;52.078;8.648;2024-03-23T21:36:40;99458.59;;;3.47;88.13
19005;BME280;9635;52.078;8.648;2024-03-23T21:41:44;99465.84;;;3.18;89.78
19005;BME280;9635;52.078;8.648;2024-03-23T21:46:45;99452.56;;;3.58;87.81
19005;BME280;9635;52.078;8.648;2024-03-23T21:51:45;99438.06;;;3.77;85.56
19005;BME280;9635;52.078;8.648;2024-03-23T21:56:46;99430.34;;;3.46;87.88
19005;BME280;9635;52.078;8.648;2024-03-23T22:01:47;99435.13;;;3.41;87.73
19005;BME280;9635;52.078;8.648;2024-03-23T22:06:48;99432.25;;;3.44;87.38
19005;BME280;9635;52.078;8.648;2024-03-23T22:11:49;99433.22;;;3.16;88.14
19005;BME280;9635;52.078;8.648;2024-03-23T22:16:50;99418.34;;;3.41;86.50
19005;BME280;9635;52.078;8.648;2024-03-23T22:21:51;99415.22;;;3.07;88.36
19005;BME280;9635;52.078;8.648;2024-03-23T22:26:52;99396.59;;;3.48;86.47
19005;BME280;9635;52.078;8.648;2024-03-23T22:31:52;99408.09;;;3.22;87.32
19005;BME280;9635;52.078;8.648;2024-03-23T22:36:53;99407.59;;;3.42;86.74
19005;BME280;9635;52.078;8.648;2024-03-23T22:41:54;99388.97;;;3.57;89.44
19005;BME280;9635;52.078;8.648;2024-03-23T22:46:55;99376.28;;;3.35;92.02
19005;BME280;9635;52.078;8.648;2024-03-23T22:51:56;99372.91;;;3.58;91.19
19005;BME280;9635;52.078;8.648;2024-03-23T22:56:57;99373.47;;;3.23;91.23
19005;BME280;9635;52.078;8.648;2024-03-23T23:01:58;99362.50;;;3.68;88.31
19005;BME280;9635;52.078;8.648;2024-03-23T23:06:59;99368.47;;;3.71;87.45
19005;BME280;9635;52.078;8.648;2024-03-23T23:12:00;99359.22;;;3.52;88.92
19005;BME280;9635;52.078;8.648;2024-03-23T23:17:00;99357.16;;;3.42;89.94
19005;BME280;9635;52.078;8.648;2024-03-23T23:22:01;99350.25;;;3.27;91.02
19005;BME280;9635;52.078;8.648;2024-03-23T23:27:02;99344.09;;;3.26;92.14
19005;BME280;9635;52.078;8.648;2024-03-23T23:32:03;99338.44;;;3.31;91.99
19005;BME280;9635;52.078;8.648;2024-03-23T23:37:04;99336.63;;;3.19;93.12
19005;BME280;9635;52.078;8.648;2024-03-23T23:42:05;99343.25;;;3.39;91.49
19005;BME280;9635;52.078;8.648;2024-03-23T23:47:06;99339.09;;;3.22;92.75
19005;BME280;9635;52.078;8.648;2024-03-23T23:52:07;99332.84;;;3.36;90.81
19005;BME280;9635;52.078;8.648;2024-03-23T23:57:08;99338.59;;;3.55;89.44
